»·PEaware :: N416JK KLAS-KONT

N416JK :: KLAS-KONT

FLIGHT INFORMATION

Flight Status: Arrived
Operator: Privately registered:
United States
More flights under this callsign
Pilot: John K. (4202)
Aircraft: PIPER PA-31/31P NAVAJO CHIEFTAIN
(PA31)
More flights by this aircraft type
Origin: KLAS McCarran Intl
United States
Destination: KONT Ontario Intl
United States
More flights between these airports :: More routes between these airports
Route: +V538 GFS V210 HEC V442 PDZ
File this flight plan on PilotEdge
Remarks:
Altitude:
(Current/Filed)
12,000ft
Speed:
(Current/Filed)
160kts
Departed: 08-Jul-20 09:26 AM
Arrived: 08-Jul-20 10:44 AM
Distance/Time
Traveled:
171nm/1:17
Distance/Time
To Go:
Arrived

Flight Plot

Page will automatically refresh every two minutes.

Flight plan parsing failed; only flown route is shown


Map Options




Map Legend


Flown Route
Filed Route
Departure Airport
Arrival Airport
Navaid (VOR, NDB)
Fix

Horizontal Profiles

Position Reports

Time Latitude Longitude Heading Altitude Ground
Speed
08-Jul-20 08:57 36.081452 -115.171207 89 2145ft 0kts
08-Jul-20 08:58 36.081452 -115.171207 89 2145ft 0kts
08-Jul-20 09:00 36.081452 -115.171207 89 2145ft 0kts
08-Jul-20 09:01 36.081452 -115.171207 89 2145ft 0kts
08-Jul-20 09:02 36.081452 -115.171207 89 2145ft 0kts
08-Jul-20 09:03 36.081452 -115.171207 89 2145ft 0kts
08-Jul-20 09:04 36.081452 -115.171207 89 2145ft 0kts
08-Jul-20 09:05 36.081452 -115.171207 89 2145ft 0kts
08-Jul-20 09:06 36.081452 -115.171207 89 2145ft 0kts
08-Jul-20 09:07 36.081452 -115.171207 89 2145ft 0kts
08-Jul-20 09:08 36.081452 -115.171207 89 2145ft 0kts
08-Jul-20 09:09 36.081452 -115.171207 89 2145ft 0kts
08-Jul-20 09:10 36.081452 -115.171207 89 2145ft 0kts
08-Jul-20 09:11 36.081452 -115.171207 89 2145ft 0kts
08-Jul-20 09:12 36.081452 -115.171207 89 2145ft 0kts
08-Jul-20 09:13 36.081452 -115.171207 89 2145ft 0kts
08-Jul-20 09:14 36.081452 -115.171207 89 2145ft 0kts
08-Jul-20 09:15 36.081452 -115.171207 89 2145ft 0kts
08-Jul-20 09:16 36.081452 -115.171207 89 2145ft 0kts
08-Jul-20 09:17 36.081452 -115.171207 89 2145ft 0kts
08-Jul-20 09:18 36.081452 -115.171207 89 2145ft 0kts
08-Jul-20 09:19 36.081452 -115.171207 89 2145ft 0kts
08-Jul-20 09:20 36.081452 -115.171207 89 2145ft 0kts
08-Jul-20 09:21 36.081452 -115.171207 89 2145ft 0kts
08-Jul-20 09:22 36.081452 -115.171207 89 2145ft 0kts
08-Jul-20 09:23 36.081452 -115.171207 89 2145ft 0kts
08-Jul-20 09:24 36.081618 -115.169162 39 2145ft 23kts
08-Jul-20 09:25 36.089866 -115.164374 25 2145ft 42kts
08-Jul-20 09:26 36.099706 -115.158205 71 2145ft 14kts
08-Jul-20 09:27 36.099854 -115.157550 91 2145ft 0kts
08-Jul-20 09:28 36.099854 -115.157550 91 2145ft 0kts
08-Jul-20 09:29 36.095357 -115.158839 205 2145ft 96kts
08-Jul-20 09:30 36.062273 -115.164755 186 3907ft 138kts
08-Jul-20 09:31 36.022249 -115.167778 186 5630ft 154kts
08-Jul-20 09:32 35.979541 -115.171206 186 7197ft 149kts
08-Jul-20 09:33 35.939706 -115.174289 186 8391ft 144kts
08-Jul-20 09:34 35.900257 -115.177716 187 9520ft 145kts
08-Jul-20 09:35 35.858128 -115.179574 182 10033ft 176kts
08-Jul-20 09:36 35.807741 -115.179213 182 10053ft 189kts
08-Jul-20 09:37 35.754766 -115.178972 182 10050ft 188kts
08-Jul-20 09:38 35.704455 -115.178739 182 10049ft 175kts
08-Jul-20 09:39 35.662591 -115.178442 183 11089ft 134kts
08-Jul-20 09:40 35.626984 -115.178323 184 12091ft 127kts
08-Jul-20 09:41 35.587190 -115.178392 183 12044ft 175kts
08-Jul-20 09:42 35.537609 -115.178169 183 12045ft 185kts
08-Jul-20 09:43 35.486248 -115.177938 183 12043ft 186kts
08-Jul-20 09:44 35.436768 -115.177712 183 12006ft 174kts
08-Jul-20 09:45 35.390450 -115.177517 183 11951ft 163kts
08-Jul-20 09:46 35.354607 -115.195632 244 11955ft 153kts
08-Jul-20 09:47 35.336279 -115.241486 240 11952ft 151kts
08-Jul-20 09:48 35.316893 -115.286683 240 11952ft 151kts
08-Jul-20 09:49 35.297497 -115.331481 240 11951ft 150kts
08-Jul-20 09:50 35.277801 -115.376755 240 11951ft 150kts
08-Jul-20 09:51 35.258312 -115.421461 240 11951ft 150kts
08-Jul-20 09:52 35.238817 -115.466140 240 11951ft 150kts
08-Jul-20 09:53 35.219296 -115.510791 240 11951ft 150kts
08-Jul-20 09:54 35.199745 -115.555449 240 11951ft 150kts
08-Jul-20 09:55 35.180420 -115.599537 240 12051ft 147kts
08-Jul-20 09:56 35.161123 -115.643497 240 12051ft 149kts
08-Jul-20 09:57 35.140554 -115.690673 240 12057ft 173kts
08-Jul-20 09:58 35.117588 -115.743131 240 12054ft 185kts
08-Jul-20 09:59 35.095377 -115.793438 241 12054ft 188kts
08-Jul-20 10:00 35.070579 -115.848924 241 12053ft 189kts
08-Jul-20 10:01 35.046183 -115.904828 241 12053ft 189kts
08-Jul-20 10:02 35.022242 -115.958972 241 12053ft 189kts
08-Jul-20 10:03 34.997195 -116.015432 241 12052ft 189kts
08-Jul-20 10:04 34.972492 -116.071019 241 12052ft 189kts
08-Jul-20 10:06 34.947698 -116.126712 241 12050ft 189kts
08-Jul-20 10:07 34.923565 -116.180833 241 12033ft 189kts
08-Jul-20 10:08 34.898779 -116.236331 241 12034ft 189kts
08-Jul-20 10:09 34.873647 -116.292423 241 12035ft 189kts
08-Jul-20 10:10 34.849238 -116.346992 241 12026ft 189kts
08-Jul-20 10:11 34.824350 -116.402482 241 12025ft 187kts
08-Jul-20 10:12 34.799714 -116.457271 241 12025ft 186kts
08-Jul-20 10:13 34.778505 -116.514990 246 12025ft 186kts
08-Jul-20 10:14 34.758006 -116.572017 246 12025ft 186kts
08-Jul-20 10:15 34.737359 -116.629339 246 12025ft 187kts
08-Jul-20 10:16 34.716877 -116.686604 246 12028ft 188kts
08-Jul-20 10:17 34.695996 -116.744766 245 12027ft 189kts
08-Jul-20 10:18 34.675092 -116.802506 246 12027ft 188kts
08-Jul-20 10:19 34.654249 -116.860039 246 12027ft 188kts
08-Jul-20 10:20 34.633410 -116.917418 246 12050ft 187kts
08-Jul-20 10:21 34.612879 -116.973861 246 12054ft 188kts
08-Jul-20 10:22 34.591691 -117.031994 246 12054ft 188kts
08-Jul-20 10:22 34.574370 -117.079429 246 12110ft 186kts
08-Jul-20 10:24 34.549426 -117.145526 231 12098ft 189kts
08-Jul-20 10:25 34.501578 -117.178092 209 10610ft 208kts
08-Jul-20 10:25 34.459880 -117.203602 208 9354ft 194kts
08-Jul-20 10:27 34.405280 -117.227829 195 8186ft 163kts
08-Jul-20 10:27 34.370815 -117.236764 195 8124ft 150kts
08-Jul-20 10:28 34.331321 -117.246860 195 8137ft 146kts
08-Jul-20 10:30 34.285139 -117.258811 195 8135ft 146kts
08-Jul-20 10:30 34.251910 -117.267493 195 8140ft 158kts
08-Jul-20 10:31 34.205679 -117.279150 195 8136ft 180kts
08-Jul-20 10:32 34.158392 -117.291009 195 7447ft 174kts
08-Jul-20 10:33 34.112229 -117.302414 195 6396ft 145kts
08-Jul-20 10:34 34.077891 -117.310071 195 6112ft 109kts
08-Jul-20 10:35 34.060040 -117.328288 266 5684ft 107kts
08-Jul-20 10:36 34.057210 -117.368843 266 4432ft 128kts
08-Jul-20 10:37 34.054911 -117.402831 271 4087ft 110kts
08-Jul-20 10:38 34.053678 -117.438975 268 3163ft 100kts
08-Jul-20 10:39 34.053734 -117.472242 274 2712ft 108kts
08-Jul-20 10:40 34.054943 -117.513702 269 2239ft 140kts
08-Jul-20 10:41 34.054871 -117.556509 268 1405ft 114kts
08-Jul-20 10:42 34.055005 -117.591212 268 947ft 63kts
08-Jul-20 10:43 34.054393 -117.594470 226 947ft 0kts
08-Jul-20 10:44 34.053790 -117.608190 269 947ft 35kts
08-Jul-20 10:45 34.052717 -117.612114 102 947ft 8kts

Navigation Log

Ident Type
Flight plan parsing failed, navigation log unavailable